Latest Weather Observations for Hindmarsh Island

IDS60801

Issued at 4:41 pm CST Saturday 22 September 2018 (issued every 10 minutes, with the page automatically refreshed every 10 minutes)

About weather observations | Map of weather stations | Latest weather observations for SA | Other Formats
Station Details ID: 023894 Name: HINDMARSH ISLAND AWS Lat: -35.52 Lon: 138.82 Height: 11.0 m
Data from the previous 72 hours. | See also: Recent months at Hindmarsh Island
Date/Time
CST
Temp
°C
App
Temp
°C
Dew
Point
°C
Rel
Hum
%
Delta-T
°C
Wind Press
QNH
hPa
Press
MSL
hPa
Rain since
9am
mm
Dir  Spd
km/h
Gust
km/h
Spd
kts
Gust
kts
22/04:30pm 16.0 12.1 12.0 77 2.2 SSW 24 30 13 16 1027.3 1027.3 0.0
22/04:00pm 16.4 13.2 11.3 72 2.7 SSW 19 22 10 12 1027.2 1027.2 0.0
22/03:30pm 16.8 12.7 11.5 71 2.9 SSW 24 30 13 16 1026.9 1026.9 0.0
22/03:00pm 17.1 13.8 11.6 70 3.0 SSW 20 24 11 13 1026.9 1026.9 0.0
22/02:30pm 17.2 13.7 12.1 72 2.8 SSW 22 26 12 14 1026.9 1026.9 0.0
22/02:00pm 17.4 13.3 11.4 68 3.3 SSW 24 30 13 16 1027.0 1027.0 0.0
22/01:30pm 17.2 13.0 11.2 68 3.2 SSW 24 28 13 15 1027.0 1027.0 0.0
22/01:00pm 17.9 14.8 12.1 69 3.2 SSW 20 26 11 14 1027.2 1027.2 0.0
22/12:30pm 17.6 14.2 11.2 66 3.4 SSW 20 22 11 12 1027.4 1027.4 0.0
22/12:00pm 17.3 14.7 10.7 65 3.5 S 15 20 8 11 1027.4 1027.4 0.0
22/11:30am 17.6 15.1 11.2 66 3.4 SSW 15 19 8 10 1027.6 1027.6 0.0
22/11:00am 17.5 14.1 10.4 63 3.8 SSW 19 22 10 12 1027.6 1027.6 0.0
22/10:30am 16.8 14.9 10.4 66 3.4 SSW 11 13 6 7 1027.7 1027.7 0.0
22/10:00am 16.2 13.4 10.1 67 3.2 SSW 15 20 8 11 1028.1 1028.1 0.0
22/09:30am 15.8 13.2 9.5 66 3.2 SSW 13 17 7 9 1028.0 1028.0 0.0
22/09:00am 14.0 12.0 8.6 70 2.7 SSW 9 11 5 6 1027.9 1027.9 0.0
22/08:30am 13.0 11.7 9.3 78 1.9 SSE 6 7 3 4 1027.8 1027.8 0.0
22/08:00am 11.1 10.3 8.1 82 1.5 ENE 2 7 1 4 1027.6 1027.6 0.0
22/07:30am 9.9 8.9 7.5 85 1.1 ENE 2 6 1 3 1027.4 1027.4 0.0
22/07:00am 8.6 6.5 6.6 87 0.9 NNE 7 9 4 5 1027.1 1027.1 0.0
22/06:30am 8.4 6.3 6.5 88 0.9 N 7 11 4 6 1026.9 1026.9 0.0
22/06:00am 7.0 4.2 5.0 87 0.9 NNE 9 11 5 6 1026.4 1026.4 0.0
22/05:30am 8.0 5.4 6.0 87 0.9 N 9 13 5 7 1026.3 1026.3 0.0
22/05:00am 8.3 5.7 6.3 87 0.9 NNE 9 15 5 8 1025.9 1025.9 0.0
22/04:30am 8.4 5.9 6.4 87 0.9 NNE 9 11 5 6 1025.6 1025.6 0.0
22/04:00am 8.9 5.7 7.0 88 0.9 NNE 13 17 7 9 1025.5 1025.5 0.0
22/03:30am 7.5 4.8 5.6 88 0.8 NNE 9 11 5 6 1025.6 1025.6 0.0
22/03:00am 7.3 4.5 5.3 87 0.9 NE 9 9 5 5 1025.7 1025.7 0.0
22/02:30am 7.6 4.9 5.4 86 1.0 NNE 9 11 5 6 1026.0 1026.0 0.0
22/02:00am 8.6 7.1 6.6 87 0.9 NNW 4 9 2 5 1026.5 1026.5 0.0
22/01:30am 8.6 4.6 6.6 87 0.9 N 17 20 9 11 1026.6 1026.6 0.0
22/01:00am 9.0 5.5 7.0 87 0.9 N 15 17 8 9 1026.8 1026.8 0.0
22/12:30am 9.3 6.2 7.1 86 1.0 N 13 15 7 8 1027.1 1027.1 0.0
22/12:00am 9.9 7.6 7.5 85 1.1 NNW 9 11 5 6 1027.2 1027.2 0.0
 
Date/Time
CST
Temp
°C
App
Temp
°C
Dew
Point
°C
Rel
Hum
%
Delta-T
°C
Wind Press
QNH
hPa
Press
MSL
hPa
Rain since
9am
mm
Dir  Spd
km/h
Gust
km/h
Spd
kts
Gust
kts
21/11:30pm 10.0 7.3 7.4 84 1.2 NNW 11 13 6 7 1027.6 1027.6 0.0
21/11:00pm 10.2 7.9 7.6 84 1.2 NNW 9 9 5 5 1027.6 1027.6 0.0
21/10:30pm 10.0 7.7 7.4 84 1.2 NNW 9 11 5 6 1027.8 1027.8 0.0
21/10:00pm 10.7 8.9 7.9 83 1.4 NNW 7 9 4 5 1027.7 1027.7 0.0
21/09:30pm 10.9 9.1 8.1 83 1.4 NNW 7 9 4 5 1027.9 1027.9 0.0
21/09:00pm 11.2 9.1 8.4 83 1.4 N 9 11 5 6 1027.7 1027.7 0.0
21/08:30pm 11.6 10.0 8.6 82 1.5 NNE 7 9 4 5 1027.4 1027.4 0.0
21/08:00pm 12.2 10.8 8.9 80 1.6 E 6 7 3 4 1027.2 1027.2 0.0
21/07:30pm 12.0 10.0 8.5 79 1.7 ESE 9 9 5 5 1026.9 1026.9 0.0
21/07:00pm 12.5 10.5 8.6 77 1.9 SE 9 11 5 6 1026.7 1026.7 0.0
21/06:30pm 13.1 11.1 8.6 74 2.2 SSE 9 11 5 6 1026.6 1026.6 0.0
21/06:00pm 13.8 11.4 8.8 72 2.5 SSE 11 13 6 7 1026.4 1026.4 0.0
21/05:30pm 14.3 10.8 8.9 70 2.7 S 17 19 9 10 1026.1 1026.1 0.0
21/05:00pm 14.8 11.0 9.0 68 3.0 S 19 22 10 12 1025.9 1025.9 0.0
21/04:30pm 15.4 12.0 9.3 67 3.1 SSE 17 20 9 11 1025.7 1025.7 0.0
21/04:00pm 16.2 12.2 10.3 68 3.1 S 22 24 12 13 1025.7 1025.7 0.0
21/03:30pm 16.4 12.5 9.6 64 3.5 S 20 24 11 13 1025.7 1025.7 0.0
21/03:00pm 17.0 13.7 9.7 62 3.8 S 17 20 9 11 1025.8 1025.8 0.0
21/02:30pm 17.3 14.3 9.2 59 4.2 S 15 20 8 11 1026.0 1026.0 0.0
21/02:00pm 18.2 14.9 9.5 57 4.6 SSW 17 19 9 10 1026.2 1026.2 0.0
21/01:30pm 17.7 14.5 8.3 54 4.8 SSW 15 20 8 11 1026.6 1026.6 0.0
21/01:00pm 18.5 15.8 7.3 48 5.7 NW 11 20 6 11 1027.1 1027.1 0.0
21/12:30pm 18.6 15.7 8.3 51 5.3 WNW 13 19 7 10 1027.7 1027.7 0.0
21/12:00pm 17.9 15.8 8.2 53 4.9 NW 9 13 5 7 1028.0 1028.0 0.0
21/11:30am 17.1 14.6 8.3 56 4.5 NNW 11 17 6 9 1028.3 1028.3 0.0
21/11:00am 16.0 12.6 7.5 57 4.2 WNW 15 20 8 11 1028.5 1028.5 0.0
21/10:30am 15.7 12.7 7.7 59 4.0 WNW 13 17 7 9 1028.5 1028.5 0.0
21/10:00am 15.0 11.5 7.3 60 3.8 NW 15 20 8 11 1028.6 1028.6 0.0
21/09:30am 14.9 11.7 7.0 59 3.8 N 13 20 7 11 1028.6 1028.6 0.0
21/09:00am 14.2 11.9 7.5 64 3.3 NW 9 15 5 8 1028.5 1028.5 0.0
21/08:30am 13.9 11.3 7.9 67 3.0 WNW 11 17 6 9 1028.3 1028.3 0.0
21/08:00am 13.4 10.4 7.6 68 2.8 WNW 13 20 7 11 1028.2 1028.2 0.0
21/07:30am 13.1 10.6 8.2 72 2.4 WNW 11 15 6 8 1027.9 1027.9 0.0
21/07:00am 12.7 10.6 8.2 74 2.2 WNW 9 13 5 7 1027.7 1027.7 0.0
21/06:30am 12.5 10.8 8.4 76 2.0 W 7 9 4 5 1027.3 1027.3 0.0
21/06:00am 12.4 10.4 8.5 77 1.9 NW 9 11 5 6 1027.0 1027.0 0.0
21/05:30am 12.6 10.6 8.5 76 2.0 WNW 9 11 5 6 1026.8 1026.8 0.0
21/05:00am 12.5 10.8 8.4 76 2.0 W 7 9 4 5 1026.6 1026.6 0.0
21/04:30am 12.3 10.3 8.6 78 1.8 WNW 9 15 5 8 1026.4 1026.4 0.0
21/04:00am 12.5 10.6 9.1 80 1.7 WNW 9 13 5 7 1026.2 1026.2 0.0
21/03:30am 12.2 10.3 9.2 82 1.5 WNW 9 13 5 7 1025.9 1025.9 0.0
21/03:00am 12.1 11.2 9.3 83 1.4 NW 4 7 2 4 1025.8 1025.8 0.0
21/02:30am 12.1 10.8 9.3 83 1.4 WNW 6 7 3 4 1026.1 1026.1 0.0
21/02:00am 12.2 10.7 9.2 82 1.5 WSW 7 11 4 6 1026.4 1026.4 0.0
21/01:30am 12.4 10.5 9.1 80 1.6 NW 9 13 5 7 1026.6 1026.6 0.0
21/01:00am 12.4 10.5 9.1 80 1.7 NNW 9 11 5 6 1026.7 1026.7 0.0
21/12:30am 12.5 10.2 9.1 80 1.7 NW 11 17 6 9 1026.6 1026.6 0.0
21/12:00am 12.6 9.9 9.1 79 1.8 NW 13 17 7 9 1026.6 1026.6 0.0
 
Date/Time
CST
Temp
°C
App
Temp
°C
Dew
Point
°C
Rel
Hum
%
Delta-T
°C
Wind Press
QNH
hPa
Press
MSL
hPa
Rain since
9am
mm
Dir  Spd
km/h
Gust
km/h
Spd
kts
Gust
kts
20/11:30pm 12.6 10.7 9.1 79 1.8 NW 9 11 5 6 1026.6 1026.6 0.0
20/11:00pm 12.6 11.1 9.1 79 1.8 NNW 7 9 4 5 1026.5 1026.5 0.0
20/10:30pm 12.6 11.1 9.1 79 1.8 NNW 7 9 4 5 1026.5 1026.5 0.0
20/10:00pm 12.9 11.6 9.2 78 1.9 WNW 6 9 3 5 1026.6 1026.6 0.0
20/09:30pm 13.1 11.2 9.2 77 2.0 WNW 9 11 5 6 1026.7 1026.7 0.0
20/09:00pm 13.2 10.9 9.1 76 2.1 W 11 13 6 7 1026.5 1026.5 0.0
20/08:30pm 13.2 10.9 9.1 76 2.1 WNW 11 15 6 8 1026.3 1026.3 0.0
20/08:00pm 13.1 11.3 9.4 78 1.9 WSW 9 13 5 7 1026.2 1026.2 0.0
20/07:30pm 12.9 10.7 9.5 80 1.7 SSW 11 15 6 8 1025.9 1025.9 0.0
20/07:00pm 13.1 11.4 9.9 81 1.6 SSW 9 13 5 7 1025.5 1025.5 0.0
20/06:30pm 13.1 10.7 9.9 81 1.6 SSW 13 15 7 8 1025.1 1025.1 0.0
20/06:00pm 13.2 10.3 9.8 80 1.7 SSW 15 17 8 9 1024.9 1024.9 0.0
20/05:30pm 13.2 9.5 9.5 78 1.9 SW 19 22 10 12 1024.7 1024.7 0.0
20/05:00pm 13.5 10.3 9.9 79 1.9 SSW 17 20 9 11 1024.5 1024.5 0.0
20/04:30pm 13.5 9.4 10.1 80 1.7 SSW 22 26 12 14 1024.2 1024.2 0.0
20/04:00pm 13.9 9.6 9.5 75 2.3 SSW 22 28 12 15 1024.0 1024.0 0.0
20/03:30pm 14.3 10.1 9.9 75 2.3 SSW 22 28 12 15 1023.8 1023.8 0.0
20/03:00pm 14.5 9.9 9.5 72 2.6 SSW 24 28 13 15 1023.8 1023.8 0.0
20/02:30pm 14.8 10.1 9.4 70 2.8 SSW 24 30 13 16 1023.8 1023.8 0.0
20/02:00pm 15.2 11.3 9.6 69 2.9 SSW 20 24 11 13 1023.9 1023.9 0.0
20/01:30pm 15.2 11.8 9.1 67 3.1 SSW 17 22 9 12 1024.0 1024.0 0.0
20/01:00pm 15.1 10.9 8.3 64 3.4 SSW 20 26 11 14 1024.1 1024.1 0.0
20/12:30pm 15.5 11.7 7.5 59 4.0 SW 17 20 9 11 1024.2 1024.2 0.0
20/12:00pm 15.3 10.7 8.3 63 3.5 SW 22 26 12 14 1024.3 1024.3 0.0
20/11:30am 16.0 10.7 7.0 55 4.4 SW 24 28 13 15 1024.4 1024.4 0.0
20/11:00am 15.8 11.4 7.3 57 4.2 SW 20 26 11 14 1024.4 1024.4 0.0
20/10:30am 14.6 9.9 7.6 63 3.4 SW 22 28 12 15 1024.4 1024.4 0.0
20/10:00am 14.1 9.0 7.6 65 3.2 SW 24 32 13 17 1024.2 1024.2 0.0
20/09:30am 14.2 9.3 8.4 68 2.9 SW 24 30 13 16 1024.0 1024.0 0.0
20/09:00am 13.6 9.3 8.0 69 2.8 W 20 26 11 14 1023.6 1023.6 2.6
20/08:30am 13.1 9.0 7.8 70 2.6 W 19 26 10 14 1023.1 1023.1 2.6
20/08:00am 12.2 8.9 8.1 76 2.0 WNW 15 19 8 10 1022.7 1022.7 2.6
20/07:30am 11.3 7.2 8.0 80 1.6 WNW 19 24 10 13 1022.3 1022.3 2.6
20/07:00am 10.2 6.7 7.4 83 1.3 WNW 15 19 8 10 1022.2 1022.2 2.6
20/06:30am 9.5 6.0 7.1 85 1.1 WNW 15 19 8 10 1021.7 1021.7 2.6
20/06:00am 9.1 6.2 6.7 85 1.1 WNW 11 13 6 7 1021.3 1021.3 2.6
20/05:30am 9.5 6.4 7.1 85 1.1 WNW 13 17 7 9 1020.9 1020.9 2.4
20/05:00am 9.1 6.2 6.7 85 1.1 NW 11 13 6 7 1020.7 1020.7 2.4
20/04:30am 8.8 5.5 6.6 86 1.0 NW 13 17 7 9 1020.5 1020.5 2.4
20/04:00am 8.7 5.4 6.3 85 1.1 NW 13 15 7 8 1020.3 1020.3 2.4
20/03:30am 8.8 5.9 6.4 85 1.1 NW 11 13 6 7 1020.1 1020.1 2.4
20/03:00am 9.1 6.2 6.7 85 1.1 WNW 11 13 6 7 1020.1 1020.1 2.4
20/02:30am 9.5 6.7 6.9 84 1.2 WNW 11 13 6 7 1020.2 1020.2 2.4
20/02:00am 10.1 6.6 7.3 83 1.3 WNW 15 19 8 10 1020.2 1020.2 2.4
20/01:30am 9.8 6.7 7.4 85 1.1 W 13 20 7 11 1020.6 1020.6 2.4
20/01:00am 8.8 6.3 6.6 86 1.0 WNW 9 11 5 6 1020.7 1020.7 2.4
20/12:30am 8.5 5.5 6.1 85 1.1 WNW 11 13 6 7 1020.7 1020.7 2.4
20/12:00am 8.0 5.3 5.6 85 1.1 NW 9 11 5 6 1020.7 1020.7 2.4
 
Date/Time
CST
Temp
°C
App
Temp
°C
Dew
Point
°C
Rel
Hum
%
Delta-T
°C
Wind Press
QNH
hPa
Press
MSL
hPa
Rain since
9am
mm
Dir  Spd
km/h
Gust
km/h
Spd
kts
Gust
kts
19/11:30pm 8.2 5.5 5.8 85 1.1 NW 9 11 5 6 1020.5 1020.5 2.4
19/11:00pm 8.3 5.6 5.8 84 1.1 NNW 9 11 5 6 1020.5 1020.5 2.4
19/10:30pm 8.3 5.6 5.6 83 1.2 NNW 9 11 5 6 1020.4 1020.4 2.4
19/10:00pm 8.8 6.5 5.9 82 1.3 NW 7 9 4 5 1020.3 1020.3 2.4
19/09:30pm 9.1 6.4 5.8 80 1.5 N 9 9 5 5 1020.2 1020.2 2.4
19/09:00pm 9.5 7.3 6.0 79 1.6 NNW 7 9 4 5 1020.0 1020.0 2.4
19/08:30pm 9.8 8.2 6.5 80 1.5 NW 4 11 2 6 1020.0 1020.0 2.4
19/08:00pm 9.6 8.1 6.7 82 1.4 S 4 7 2 4 1020.0 1020.0 2.2
19/07:30pm 9.7 6.9 7.0 83 1.3 NW 11 13 6 7 1019.6 1019.6 2.2
19/07:00pm 10.0 7.6 7.1 82 1.4 NW 9 13 5 7 1019.3 1019.3 2.2
19/06:30pm 10.2 7.1 7.3 82 1.4 WNW 13 19 7 10 1019.3 1019.3 2.2
19/06:00pm 10.2 5.7 7.1 81 1.5 WNW 20 30 11 16 1019.3 1019.3 1.4
19/05:30pm 10.6 6.7 7.3 80 1.6 WNW 17 24 9 13 1019.0 1019.0 1.0
19/05:00pm 10.5 5.7 7.4 81 1.5 WNW 22 33 12 18 1018.8 1018.8 1.0

Other Formats:

Comma delimited format used in spreadsheet applications
http://www.bom.gov.au/fwo/IDS60801/IDS60801.94677.axf

JavaScript Object Notation format (JSON) in row-major order
http://www.bom.gov.au/fwo/IDS60801/IDS60801.94677.json